createdAt,value
2022-08-22T00:00:33.189Z,74.13
2022-08-22T00:01:33.102Z,74.04
2022-08-22T00:02:33.095Z,74.24
2022-08-22T00:02:52.599Z,50.89
2022-08-22T00:02:57.905Z,73.49
2022-08-22T00:03:09.682Z,72.75
2022-08-22T00:03:32.259Z,74.24
2022-08-22T00:04:34.439Z,74.24
2022-08-22T00:05:32.969Z,74.44
2022-08-22T00:06:32.219Z,74.54
2022-08-22T00:07:32.219Z,74.95
2022-08-22T00:08:32.188Z,75.25
2022-08-22T00:09:32.198Z,75.15
2022-08-22T00:10:33.001Z,74.95
2022-08-22T00:11:32.179Z,74.95
2022-08-22T00:12:32.169Z,75.15
2022-08-22T00:13:32.976Z,75.25
2022-08-22T00:14:32.129Z,75.15
2022-08-22T00:15:43.551Z,75.76
2022-08-22T00:16:33.960Z,75.76
2022-08-22T00:17:32.120Z,75.76
2022-08-22T00:18:40.424Z,75.69
2022-08-22T00:19:32.085Z,75.49
2022-08-22T00:20:32.819Z,75.59
2022-08-22T00:21:32.111Z,75.69
2022-08-22T00:22:32.881Z,75.49
2022-08-22T00:23:32.058Z,75.49
2022-08-22T00:24:32.224Z,75.49
2022-08-22T00:25:32.239Z,75.59
2022-08-22T00:26:32.244Z,75.69
2022-08-22T00:27:32.008Z,75.79
2022-08-22T00:28:31.954Z,75.89
2022-08-22T00:29:31.962Z,75.99
2022-08-22T00:30:31.935Z,75.99
2022-08-22T00:31:31.949Z,75.89
2022-08-22T00:32:31.924Z,76.09
2022-08-22T00:33:31.926Z,76.20
2022-08-22T00:34:31.884Z,76.50
2022-08-22T00:35:31.892Z,76.70
2022-08-22T00:36:32.131Z,76.70
2022-08-22T00:37:31.886Z,76.74
2022-08-22T00:38:31.857Z,76.54
2022-08-22T00:39:32.236Z,76.54
2022-08-22T00:40:32.725Z,76.64
2022-08-22T00:41:31.850Z,76.64
2022-08-22T00:42:32.554Z,76.64
2022-08-22T00:43:32.654Z,76.74
2022-08-22T00:44:31.788Z,76.74
2022-08-22T00:45:31.793Z,76.78
2022-08-22T00:46:31.745Z,76.87
2022-08-22T00:47:31.755Z,77.38
2022-08-22T00:48:32.513Z,77.59
2022-08-22T00:49:31.748Z,77.69
2022-08-22T00:50:31.705Z,77.79
2022-08-22T00:51:32.660Z,77.89
2022-08-22T00:52:31.675Z,78.23
2022-08-22T00:53:31.685Z,78.33
2022-08-22T00:54:31.671Z,78.23
2022-08-22T00:55:34.836Z,78.44
2022-08-22T00:56:31.635Z,78.53
2022-08-22T00:57:31.645Z,78.64
2022-08-22T00:58:31.605Z,78.64
2022-08-22T00:59:31.606Z,78.84
2022-08-22T01:00:35.053Z,79.08
2022-08-22T01:01:32.542Z,79.08
2022-08-22T01:02:32.361Z,78.98
2022-08-22T01:03:32.076Z,78.78
2022-08-22T01:04:32.109Z,78.78
2022-08-22T01:05:31.555Z,78.78
2022-08-22T01:06:31.515Z,78.78
2022-08-22T01:07:37.853Z,78.88
2022-08-22T01:08:32.547Z,78.88
2022-08-22T01:09:31.485Z,79.18
2022-08-22T01:10:31.474Z,79.38
2022-08-22T01:11:32.266Z,79.69
2022-08-22T01:12:31.455Z,79.38
2022-08-22T01:13:31.444Z,79.38
2022-08-22T01:14:34.645Z,79.63
2022-08-22T01:15:31.427Z,79.72
2022-08-22T01:16:31.415Z,79.83
2022-08-22T01:17:31.957Z,79.72
2022-08-22T01:18:32.007Z,79.83
2022-08-22T01:19:31.856Z,79.72
2022-08-22T01:20:31.354Z,79.63
2022-08-22T01:21:32.150Z,79.93
2022-08-22T01:22:32.049Z,79.93
2022-08-22T01:23:32.142Z,80.03
2022-08-22T01:24:31.367Z,80.24
2022-08-22T01:25:31.308Z,80.33
2022-08-22T01:26:32.121Z,80.44
2022-08-22T01:27:31.295Z,80.54
2022-08-22T01:28:31.268Z,80.44
2022-08-22T01:29:31.256Z,80.58
2022-08-22T01:30:31.228Z,80.58
2022-08-22T01:31:31.227Z,80.68
2022-08-22T01:32:31.217Z,80.68
2022-08-22T01:33:31.238Z,80.68
2022-08-22T01:34:31.191Z,80.88
2022-08-22T01:35:31.184Z,80.88
2022-08-22T01:36:31.167Z,80.78
2022-08-22T01:37:31.436Z,80.58
2022-08-22T01:38:31.245Z,80.78
2022-08-22T01:39:31.147Z,80.88
2022-08-22T01:40:31.131Z,80.98
2022-08-22T01:41:31.546Z,80.98
2022-08-22T01:42:31.849Z,80.78
2022-08-22T01:43:58.616Z,80.72
2022-08-22T01:44:32.946Z,80.92
2022-08-22T01:45:31.084Z,81.02
2022-08-22T01:46:31.061Z,80.92
2022-08-22T01:47:31.057Z,81.02
2022-08-22T01:48:32.067Z,81.33
2022-08-22T01:49:31.760Z,81.43
2022-08-22T01:50:31.015Z,81.53
2022-08-22T01:51:30.999Z,81.53
2022-08-22T01:52:30.980Z,81.73
2022-08-22T01:53:30.988Z,81.53
2022-08-22T01:54:30.992Z,81.43
2022-08-22T01:55:31.189Z,81.43
2022-08-22T01:56:30.929Z,81.53
2022-08-22T01:57:31.567Z,81.63
2022-08-22T01:58:30.915Z,81.63
2022-08-22T01:59:33.996Z,81.73
2022-08-22T02:00:35.177Z,81.73
2022-08-22T02:01:30.886Z,81.73
2022-08-22T02:02:30.857Z,81.63
2022-08-22T02:03:31.624Z,81.84
2022-08-22T02:04:31.786Z,81.84
2022-08-22T02:05:30.886Z,81.73
2022-08-22T02:06:30.818Z,81.84
2022-08-22T02:07:32.275Z,81.73
2022-08-22T02:08:30.808Z,81.63
2022-08-22T02:09:30.916Z,81.43
2022-08-22T02:10:30.777Z,81.43
2022-08-22T02:11:30.779Z,81.46
2022-08-22T02:12:30.747Z,81.67
2022-08-22T02:13:30.749Z,81.87
2022-08-22T02:14:30.734Z,82.38
2022-08-22T02:15:30.727Z,82.38
2022-08-22T02:16:30.728Z,82.38
2022-08-22T02:17:30.709Z,81.98
2022-08-22T02:18:30.699Z,81.77
2022-08-22T02:19:30.677Z,81.87
2022-08-22T02:20:30.660Z,81.67
2022-08-22T02:21:30.656Z,81.87
2022-08-22T02:22:30.637Z,81.98
2022-08-22T02:23:31.499Z,82.07
2022-08-22T02:24:30.635Z,82.38
2022-08-22T02:25:30.840Z,82.48
2022-08-22T02:26:30.587Z,82.52
2022-08-22T02:27:31.629Z,82.62
2022-08-22T02:28:30.566Z,82.32
2022-08-22T02:29:31.045Z,82.32
2022-08-22T02:30:30.537Z,82.73
2022-08-22T02:31:30.538Z,83.03
2022-08-22T02:32:30.527Z,83.23
2022-08-22T02:33:30.527Z,83.13
2022-08-22T02:34:30.506Z,83.13
2022-08-22T02:35:30.497Z,83.13
2022-08-22T02:36:30.478Z,83.03
2022-08-22T02:37:30.483Z,83.03
2022-08-22T02:38:30.489Z,83.13
2022-08-22T02:39:30.697Z,83.07
2022-08-22T02:40:30.744Z,83.17
2022-08-22T02:41:30.913Z,83.17
2022-08-22T02:42:30.408Z,83.17
2022-08-22T02:43:30.531Z,83.27
2022-08-22T02:44:31.092Z,83.48
2022-08-22T02:45:31.176Z,83.58
2022-08-22T02:46:30.367Z,83.48
2022-08-22T02:47:30.368Z,83.68
2022-08-22T02:48:30.347Z,83.78
2022-08-22T02:49:30.378Z,83.78
2022-08-22T02:50:30.317Z,83.78
2022-08-22T02:51:30.395Z,83.92
2022-08-22T02:52:30.305Z,84.03
2022-08-22T02:53:30.297Z,84.23
2022-08-22T02:54:30.277Z,84.33
2022-08-22T02:55:30.279Z,84.03
2022-08-22T02:56:30.312Z,83.92
2022-08-22T02:57:30.258Z,83.82
2022-08-22T02:58:30.238Z,83.82
2022-08-22T02:59:30.228Z,84.03
2022-08-22T03:00:31.123Z,84.12
2022-08-22T03:01:30.234Z,84.23
2022-08-22T03:02:30.231Z,84.53
2022-08-22T03:03:30.185Z,84.43
2022-08-22T03:04:30.161Z,84.43
2022-08-22T03:05:30.187Z,84.43
2022-08-22T03:06:30.149Z,84.43
2022-08-22T03:07:30.402Z,84.53
2022-08-22T03:08:30.288Z,84.53
2022-08-22T03:09:30.117Z,84.47
2022-08-22T03:10:30.097Z,84.67
2022-08-22T03:11:30.107Z,84.78
2022-08-22T03:12:30.078Z,84.88
2022-08-22T03:13:30.225Z,85.19
2022-08-22T03:14:30.052Z,85.39
2022-08-22T03:15:30.056Z,85.39
2022-08-22T03:16:30.038Z,85.49
2022-08-22T03:17:30.037Z,85.60
2022-08-22T03:18:30.022Z,85.60
2022-08-22T03:19:30.005Z,85.60
2022-08-22T03:20:29.987Z,85.80
2022-08-22T03:21:29.998Z,85.53
2022-08-22T03:22:29.965Z,85.84
2022-08-22T03:23:29.968Z,85.84
2022-08-22T03:24:30.757Z,85.84
2022-08-22T03:25:30.664Z,85.84
2022-08-22T03:26:29.938Z,86.04
2022-08-22T03:27:33.204Z,86.35
2022-08-22T03:28:29.908Z,86.35
2022-08-22T03:29:29.904Z,86.24
2022-08-22T03:30:29.871Z,86.45
2022-08-22T03:31:29.868Z,86.35
2022-08-22T03:32:30.850Z,86.35
2022-08-22T03:33:29.905Z,86.24
2022-08-22T03:34:29.829Z,85.94
2022-08-22T03:35:29.827Z,85.53
2022-08-22T03:36:29.808Z,85.63
2022-08-22T03:37:29.808Z,85.63
2022-08-22T03:38:29.799Z,85.88
2022-08-22T03:39:29.794Z,86.08
2022-08-22T03:40:29.767Z,86.08
2022-08-22T03:41:29.758Z,86.08
2022-08-22T03:42:29.745Z,86.18
2022-08-22T03:43:29.745Z,85.98
2022-08-22T03:44:29.717Z,85.98
2022-08-22T03:45:30.045Z,85.98
2022-08-22T03:46:30.437Z,86.08
2022-08-22T03:47:29.710Z,86.08
2022-08-22T03:48:29.687Z,86.29
2022-08-22T03:49:29.678Z,86.49
2022-08-22T03:50:29.678Z,86.53
2022-08-22T03:51:29.663Z,86.63
2022-08-22T03:52:29.627Z,86.63
2022-08-22T03:53:29.637Z,86.83
2022-08-22T03:54:30.579Z,86.83
2022-08-22T03:55:29.608Z,86.63
2022-08-22T03:56:29.586Z,86.53
2022-08-22T03:57:29.588Z,86.63
2022-08-22T03:58:29.593Z,86.53
2022-08-22T03:59:29.557Z,86.83
2022-08-22T04:00:29.590Z,86.94
2022-08-22T04:01:29.548Z,86.94
2022-08-22T04:02:29.517Z,86.83
2022-08-22T04:03:30.520Z,86.73
2022-08-22T04:04:29.531Z,86.94
2022-08-22T04:05:29.550Z,87.04
2022-08-22T04:06:30.316Z,86.83
2022-08-22T04:07:32.087Z,86.83
2022-08-22T04:08:29.457Z,86.94
2022-08-22T04:09:29.459Z,87.04
2022-08-22T04:10:29.777Z,87.35
2022-08-22T04:11:29.437Z,87.55
2022-08-22T04:12:29.407Z,87.76
2022-08-22T04:13:29.404Z,87.85
2022-08-22T04:14:29.397Z,87.96
2022-08-22T04:15:29.374Z,87.96
2022-08-22T04:16:29.406Z,87.96
2022-08-22T04:17:29.357Z,87.85
2022-08-22T04:18:29.367Z,87.85
2022-08-22T04:19:29.339Z,87.90
2022-08-22T04:20:29.339Z,87.79
2022-08-22T04:21:29.308Z,87.59
2022-08-22T04:22:29.317Z,87.79
2022-08-22T04:23:29.296Z,87.90
2022-08-22T04:24:29.315Z,88.00
2022-08-22T04:25:29.273Z,87.90
2022-08-22T04:26:30.187Z,87.59
2022-08-22T04:27:29.269Z,87.49
2022-08-22T04:28:29.263Z,87.38
2022-08-22T04:29:29.225Z,86.98
2022-08-22T04:30:29.227Z,87.18
2022-08-22T04:31:29.238Z,87.18
2022-08-22T04:32:29.197Z,87.29
2022-08-22T04:33:29.187Z,87.29
2022-08-22T04:34:29.188Z,87.38
2022-08-22T04:35:29.162Z,87.70
2022-08-22T04:36:29.164Z,87.70
2022-08-22T04:37:29.147Z,87.38
2022-08-22T04:38:29.147Z,87.38
2022-08-22T04:39:29.148Z,87.18
2022-08-22T04:40:29.116Z,87.18
2022-08-22T04:41:29.087Z,87.18
2022-08-22T04:42:33.269Z,87.08
2022-08-22T04:43:29.066Z,87.08
2022-08-22T04:44:29.069Z,87.08
2022-08-22T04:45:29.047Z,87.08
2022-08-22T04:46:35.133Z,87.29
2022-08-22T04:47:30.337Z,87.38
2022-08-22T04:48:29.046Z,87.49
2022-08-22T04:49:29.069Z,87.49
2022-08-22T04:50:29.005Z,87.49
2022-08-22T04:51:28.998Z,87.70
2022-08-22T04:52:29.429Z,87.59
2022-08-22T04:53:28.956Z,87.59
2022-08-22T04:54:28.962Z,87.49
2022-08-22T04:55:28.950Z,87.59
2022-08-22T04:56:28.946Z,87.70
2022-08-22T04:57:28.927Z,87.79
2022-08-22T04:58:28.918Z,87.59
2022-08-22T04:59:28.907Z,87.70
2022-08-22T05:00:28.910Z,87.79
2022-08-22T05:01:28.916Z,87.38
2022-08-22T05:02:28.901Z,87.18
2022-08-22T05:03:28.847Z,87.14
2022-08-22T05:04:28.855Z,87.04
2022-08-22T05:05:28.852Z,86.88
2022-08-22T05:06:29.518Z,86.94
2022-08-22T05:07:35.805Z,86.83
2022-08-22T05:08:30.127Z,86.83
2022-08-22T05:09:28.776Z,86.53
2022-08-22T05:10:28.787Z,86.33
2022-08-22T05:11:28.777Z,86.53
2022-08-22T05:12:29.201Z,86.53
2022-08-22T05:13:28.736Z,86.43
2022-08-22T05:14:28.739Z,86.53
2022-08-22T05:15:28.715Z,86.53
2022-08-22T05:16:28.708Z,86.22
2022-08-22T05:17:28.705Z,86.22
2022-08-22T05:18:29.850Z,86.12
2022-08-22T05:19:32.086Z,86.18
2022-08-22T05:20:28.668Z,86.29
2022-08-22T05:21:28.654Z,86.39
2022-08-22T05:22:28.668Z,86.49
2022-08-22T05:23:28.647Z,86.59
2022-08-22T05:24:28.644Z,86.69
2022-08-22T05:25:28.617Z,86.69
2022-08-22T05:26:29.547Z,86.69
2022-08-22T05:27:29.448Z,86.59
2022-08-22T05:28:28.622Z,86.49
2022-08-22T05:29:28.890Z,86.35
2022-08-22T05:30:29.273Z,86.24
2022-08-22T05:31:29.158Z,86.24
2022-08-22T05:32:29.296Z,86.04
2022-08-22T05:33:28.546Z,85.94
2022-08-22T05:34:28.521Z,85.74
2022-08-22T05:35:28.507Z,85.49
2022-08-22T05:36:28.509Z,85.49
2022-08-22T05:37:29.266Z,84.78
2022-08-22T05:38:28.529Z,84.67
2022-08-22T05:39:28.464Z,84.84
2022-08-22T05:40:28.456Z,84.64
2022-08-22T05:41:28.427Z,84.33
2022-08-22T05:42:29.298Z,83.78
2022-08-22T05:43:29.212Z,83.17
2022-08-22T05:44:28.444Z,82.87
2022-08-22T05:45:28.412Z,82.62
2022-08-22T05:46:28.396Z,82.42
2022-08-22T05:47:28.368Z,82.12
2022-08-22T05:48:28.381Z,81.77
2022-08-22T05:49:28.353Z,81.37
2022-08-22T05:50:28.337Z,80.45
2022-08-22T05:51:28.317Z,80.00
2022-08-22T05:52:28.326Z,79.60
2022-08-22T05:53:28.286Z,79.50
2022-08-22T05:54:33.636Z,76.04
2022-08-22T05:55:29.284Z,76.41
2022-08-22T05:56:28.304Z,76.31
2022-08-22T05:57:28.297Z,77.70
2022-08-22T05:58:28.565Z,76.07
2022-08-22T05:59:29.028Z,77.29
2022-08-22T06:00:28.237Z,77.36
2022-08-22T06:01:28.237Z,77.15
2022-08-22T06:02:28.226Z,76.14
2022-08-22T06:03:28.237Z,76.03
2022-08-22T06:04:28.908Z,75.90
2022-08-22T06:05:28.878Z,76.20
2022-08-22T06:06:28.161Z,76.71
2022-08-22T06:07:28.352Z,76.51
2022-08-22T06:08:28.160Z,76.10
2022-08-22T06:09:35.371Z,76.17
2022-08-22T06:10:29.140Z,75.46
2022-08-22T06:11:33.727Z,75.05
2022-08-22T06:12:29.118Z,74.74
2022-08-22T06:13:28.896Z,75.35
2022-08-22T06:14:28.801Z,75.22
2022-08-22T06:15:28.932Z,75.01
2022-08-22T06:16:28.056Z,75.01
2022-08-22T06:17:28.030Z,75.01
2022-08-22T06:18:28.046Z,74.57
2022-08-22T06:19:28.820Z,74.48
2022-08-22T06:20:28.656Z,74.48
2022-08-22T06:21:32.534Z,74.27
2022-08-22T06:22:29.246Z,73.83
2022-08-22T06:23:27.940Z,69.48
2022-08-22T06:24:27.945Z,72.72
2022-08-22T06:25:28.754Z,73.43
2022-08-22T06:26:28.647Z,73.49
2022-08-22T06:27:31.403Z,73.39
2022-08-22T06:28:28.730Z,73.19
2022-08-22T06:29:27.889Z,72.75
2022-08-22T06:30:27.921Z,72.65
2022-08-22T06:31:27.878Z,71.64
2022-08-22T06:32:58.764Z,69.31
2022-08-22T06:33:28.846Z,70.49
2022-08-22T06:34:27.830Z,70.69
2022-08-22T06:35:28.557Z,70.39
2022-08-22T06:36:27.823Z,70.25
2022-08-22T06:37:28.620Z,69.45
2022-08-22T06:38:28.540Z,69.34
2022-08-22T06:39:28.327Z,69.11
2022-08-22T06:40:28.350Z,69.62
2022-08-22T06:41:28.347Z,69.31
2022-08-22T06:42:28.356Z,67.36
2022-08-22T06:43:28.567Z,67.56
2022-08-22T06:44:28.457Z,69.48
2022-08-22T06:45:28.617Z,68.64
2022-08-22T06:46:28.523Z,68.24
2022-08-22T06:47:28.442Z,69.01
2022-08-22T06:48:27.727Z,67.90
2022-08-22T06:49:28.498Z,66.29
2022-08-22T06:50:28.401Z,67.87
2022-08-22T06:51:28.560Z,68.27
2022-08-22T06:52:28.458Z,67.36
2022-08-22T06:53:27.638Z,67.13
2022-08-22T06:54:32.504Z,65.12
2022-08-22T06:55:28.657Z,65.89
2022-08-22T06:56:28.329Z,66.60
2022-08-22T06:57:27.569Z,66.60
2022-08-22T06:58:30.988Z,66.16
2022-08-22T06:59:29.326Z,65.36
2022-08-22T07:00:28.290Z,65.62
2022-08-22T07:01:27.599Z,65.12
2022-08-22T07:02:28.268Z,64.89
2022-08-22T07:03:28.427Z,64.69
2022-08-22T07:04:28.328Z,64.49
2022-08-22T07:05:27.520Z,63.76
2022-08-22T07:06:28.213Z,63.56
2022-08-22T07:07:28.303Z,63.05
2022-08-22T07:08:27.456Z,62.22
2022-08-22T07:09:28.358Z,61.91
2022-08-22T07:10:28.273Z,60.81
2022-08-22T07:11:28.182Z,61.18
2022-08-22T07:12:28.139Z,61.29
2022-08-22T07:13:27.378Z,61.25
2022-08-22T07:14:27.437Z,60.25
2022-08-22T07:15:28.299Z,59.12
2022-08-22T07:16:27.358Z,59.52
2022-08-22T07:17:28.108Z,57.79
2022-08-22T07:18:28.080Z,57.18
2022-08-22T07:19:27.311Z,57.56
2022-08-22T07:20:27.310Z,57.46
2022-08-22T07:21:28.329Z,57.23
2022-08-22T07:22:28.139Z,55.32
2022-08-22T07:23:27.390Z,54.62
2022-08-22T07:24:28.017Z,55.20
2022-08-22T07:25:27.399Z,54.60
2022-08-22T07:26:27.238Z,54.37
2022-08-22T07:27:27.243Z,51.97
2022-08-22T07:28:31.812Z,52.94
2022-08-22T07:29:28.999Z,52.84
2022-08-22T07:30:28.597Z,51.44
2022-08-22T07:31:27.169Z,53.02
2022-08-22T07:32:27.941Z,52.82
2022-08-22T07:33:28.122Z,52.32
2022-08-22T07:34:27.170Z,50.89
2022-08-22T07:35:27.139Z,51.29
2022-08-22T07:36:31.621Z,50.89
2022-08-22T07:37:27.988Z,51.69
2022-08-22T07:38:27.137Z,51.47
2022-08-22T07:39:27.885Z,51.37
2022-08-22T07:40:27.102Z,51.17
2022-08-22T07:41:27.851Z,50.35
2022-08-22T07:42:30.293Z,49.74
2022-08-22T07:43:27.920Z,50.84
2022-08-22T07:44:27.828Z,50.45
2022-08-22T07:45:27.041Z,50.02
2022-08-22T07:46:27.888Z,49.92
2022-08-22T07:47:26.992Z,49.92
2022-08-22T07:48:27.010Z,49.62
2022-08-22T07:49:26.971Z,49.70
2022-08-22T07:50:27.760Z,50.70
2022-08-22T07:51:27.661Z,50.49
2022-08-22T07:52:26.959Z,50.10
2022-08-22T07:53:26.930Z,49.80
2022-08-22T07:54:27.348Z,50.10
2022-08-22T07:55:27.792Z,50.40
2022-08-22T07:56:27.693Z,50.40
2022-08-22T07:57:27.602Z,49.70
2022-08-22T07:58:27.572Z,49.00
2022-08-22T07:59:26.859Z,49.10
2022-08-22T08:00:27.562Z,49.38
2022-08-22T08:01:27.766Z,49.57
2022-08-22T08:02:27.621Z,49.68
2022-08-22T08:03:27.544Z,50.17
2022-08-22T08:04:27.514Z,49.08
2022-08-22T08:05:27.599Z,49.68
2022-08-22T08:06:26.810Z,49.18
2022-08-22T08:07:26.771Z,49.77
2022-08-22T08:08:27.574Z,49.87
2022-08-22T08:09:27.476Z,49.55
2022-08-22T08:10:27.625Z,49.35
2022-08-22T08:11:26.744Z,49.15
2022-08-22T08:12:27.432Z,49.35
2022-08-22T08:13:27.593Z,48.25
2022-08-22T08:14:27.501Z,48.55
2022-08-22T08:15:27.407Z,48.83
2022-08-22T08:16:27.582Z,48.71
2022-08-22T08:17:30.130Z,48.71
2022-08-22T08:18:28.400Z,48.49
2022-08-22T08:19:26.644Z,47.77
2022-08-22T08:20:27.436Z,47.07
2022-08-22T08:21:26.615Z,46.95
2022-08-22T08:22:26.635Z,46.95
2022-08-22T08:23:27.404Z,46.23
2022-08-22T08:24:27.319Z,45.83
2022-08-22T08:25:26.564Z,45.63
2022-08-22T08:26:27.386Z,46.13
2022-08-22T08:27:26.554Z,46.33
2022-08-22T08:28:27.445Z,46.41
2022-08-22T08:29:27.352Z,45.81
2022-08-22T08:30:27.244Z,47.00
2022-08-22T08:31:26.562Z,45.71
2022-08-22T08:32:26.495Z,45.29
2022-08-22T08:33:26.919Z,45.98
2022-08-22T08:34:26.473Z,46.08
2022-08-22T08:35:27.274Z,45.47
2022-08-22T08:36:27.174Z,45.67
2022-08-22T08:37:27.146Z,44.67
2022-08-22T08:38:27.245Z,45.37
2022-08-22T08:39:28.561Z,45.07
2022-08-22T08:40:28.326Z,44.55
2022-08-22T08:41:26.906Z,44.97
2022-08-22T08:42:26.803Z,45.34
2022-08-22T08:43:27.115Z,45.45
2022-08-22T08:44:26.345Z,44.95
2022-08-22T08:45:28.971Z,44.65
2022-08-22T08:46:27.253Z,44.95
2022-08-22T08:47:27.181Z,45.23
2022-08-22T08:48:26.359Z,44.21
2022-08-22T08:49:26.306Z,44.19
2022-08-22T08:50:26.277Z,43.70
2022-08-22T08:51:27.020Z,43.70
2022-08-22T08:52:27.196Z,43.79
2022-08-22T08:53:27.100Z,43.20
2022-08-22T08:54:26.466Z,43.70
2022-08-22T08:55:26.956Z,43.49
2022-08-22T08:56:26.207Z,43.30
2022-08-22T08:57:26.204Z,43.70
2022-08-22T08:58:26.187Z,43.97
2022-08-22T08:59:27.038Z,42.68
2022-08-22T09:00:30.410Z,42.60
2022-08-22T09:01:27.715Z,43.82
2022-08-22T09:02:26.138Z,44.60
2022-08-22T09:03:30.946Z,43.52
2022-08-22T09:04:26.235Z,44.21
2022-08-22T09:05:26.139Z,44.21
2022-08-22T09:06:26.868Z,44.21
2022-08-22T09:07:27.049Z,43.89
2022-08-22T09:08:27.718Z,43.60
2022-08-22T09:09:26.825Z,42.78
2022-08-22T09:10:29.353Z,43.46
2022-08-22T09:11:28.550Z,42.76
2022-08-22T09:12:26.798Z,41.57
2022-08-22T09:13:26.028Z,42.90
2022-08-22T09:14:26.970Z,43.70
2022-08-22T09:15:26.758Z,44.09
2022-08-22T09:16:25.999Z,43.60
2022-08-22T09:17:26.853Z,43.67
2022-08-22T09:18:25.962Z,43.18
2022-08-22T09:19:25.950Z,42.71
2022-08-22T09:20:25.929Z,43.18
2022-08-22T09:21:31.476Z,43.40
2022-08-22T09:22:27.690Z,42.80
2022-08-22T09:23:27.599Z,42.98
2022-08-22T09:24:25.960Z,43.55
2022-08-22T09:25:27.197Z,43.55
2022-08-22T09:26:27.574Z,42.46
2022-08-22T09:27:25.917Z,41.47
2022-08-22T09:28:28.320Z,42.38
2022-08-22T09:29:29.059Z,42.46
2022-08-22T09:30:28.584Z,42.54
2022-08-22T09:31:44.744Z,41.95
2022-08-22T09:32:27.691Z,41.93
2022-08-22T09:33:28.262Z,42.11
2022-08-22T09:34:25.933Z,41.52
2022-08-22T09:35:25.938Z,41.20
2022-08-22T09:36:25.769Z,40.61
2022-08-22T09:37:25.772Z,40.29
2022-08-22T09:38:25.740Z,41.77
2022-08-22T09:39:25.754Z,40.66
2022-08-22T09:41:25.771Z,38.29
2022-08-22T09:42:25.682Z,39.40
2022-08-22T09:43:25.781Z,39.99
2022-08-22T09:44:26.539Z,40.58
2022-08-22T09:45:25.793Z,40.19
2022-08-22T09:46:31.593Z,41.47
2022-08-22T09:47:26.833Z,39.68
2022-08-22T09:48:26.657Z,39.97
2022-08-22T09:49:25.643Z,39.70
2022-08-22T09:50:29.444Z,39.00
2022-08-22T09:51:32.131Z,39.52
2022-08-22T09:52:32.009Z,40.31
2022-08-22T09:53:27.464Z,40.21
2022-08-22T09:54:31.501Z,39.83
2022-08-22T09:55:35.299Z,40.23
2022-08-22T09:56:26.553Z,40.05
2022-08-22T09:57:25.561Z,40.48
2022-08-22T09:58:25.519Z,40.88
2022-08-22T09:59:25.513Z,41.38
2022-08-22T10:00:25.514Z,41.77
2022-08-22T10:01:26.515Z,41.87
2022-08-22T10:02:26.724Z,40.98
2022-08-22T10:03:25.474Z,42.07
2022-08-22T10:04:25.447Z,40.19
2022-08-22T10:05:41.158Z,40.17
2022-08-22T10:06:26.452Z,40.68
2022-08-22T10:07:25.435Z,40.66
2022-08-22T10:08:26.195Z,40.76
2022-08-22T10:09:31.475Z,40.47
2022-08-22T10:10:26.374Z,40.68
2022-08-22T10:11:25.375Z,40.19
2022-08-22T10:12:25.465Z,40.48
2022-08-22T10:13:25.466Z,40.48
2022-08-22T10:14:26.026Z,40.58
2022-08-22T10:15:25.386Z,41.67
2022-08-22T10:16:25.305Z,40.86
2022-08-22T10:17:25.306Z,39.58
2022-08-22T10:18:26.055Z,39.58
2022-08-22T10:19:25.312Z,40.07
2022-08-22T10:20:25.275Z,39.67
2022-08-22T10:21:25.272Z,39.26
2022-08-22T10:22:30.180Z,39.48
2022-08-22T10:23:26.257Z,39.67
2022-08-22T10:24:25.994Z,40.07
2022-08-22T10:25:25.237Z,39.67
2022-08-22T10:26:25.877Z,38.59
2022-08-22T10:27:25.196Z,38.68
2022-08-22T10:28:25.177Z,39.67
2022-08-22T10:29:25.177Z,39.67
2022-08-22T10:30:25.148Z,39.26
2022-08-22T10:31:25.167Z,38.47
2022-08-22T10:32:26.925Z,38.96
2022-08-22T10:33:25.140Z,38.49
2022-08-22T10:34:25.829Z,37.99
2022-08-22T10:35:25.626Z,38.27
2022-08-22T10:36:26.066Z,38.67
2022-08-22T10:37:25.091Z,37.38
2022-08-22T10:38:25.354Z,37.76
2022-08-22T10:39:25.059Z,37.36
2022-08-22T10:40:25.158Z,37.36
2022-08-22T10:41:25.049Z,37.76
2022-08-22T10:42:25.049Z,37.96
2022-08-22T10:43:28.875Z,37.46
2022-08-22T10:44:24.998Z,37.26
2022-08-22T10:45:36.759Z,38.06
2022-08-22T10:46:25.972Z,37.96
2022-08-22T10:47:24.983Z,37.24
2022-08-22T10:48:24.950Z,38.90
2022-08-22T10:49:29.104Z,37.41
2022-08-22T10:50:30.959Z,36.50
2022-08-22T10:51:25.930Z,37.17
2022-08-22T10:52:28.972Z,34.71
2022-08-22T10:53:28.286Z,35.00
2022-08-22T10:54:25.021Z,34.79
2022-08-22T10:55:24.893Z,34.89
2022-08-22T10:56:24.860Z,35.18
2022-08-22T10:57:24.863Z,33.01
2022-08-22T10:58:24.852Z,34.28
2022-08-22T10:59:24.840Z,34.95
2022-08-22T11:00:25.580Z,33.08
2022-08-22T11:01:41.561Z,31.98
2022-08-22T11:02:25.791Z,33.46
2022-08-22T11:03:25.050Z,33.95
2022-08-22T11:04:28.034Z,32.87
2022-08-22T11:05:24.775Z,32.56
2022-08-22T11:06:24.755Z,32.87
2022-08-22T11:07:24.816Z,32.76
2022-08-22T11:08:24.732Z,32.34
2022-08-22T11:09:24.733Z,31.46
2022-08-22T11:10:24.925Z,33.03
2022-08-22T11:11:24.703Z,33.62
2022-08-22T11:12:28.243Z,32.36
2022-08-22T11:13:25.695Z,32.08
2022-08-22T11:14:25.583Z,32.08
2022-08-22T11:15:34.677Z,34.15
2022-08-22T11:16:25.658Z,31.51
2022-08-22T11:17:30.958Z,34.46
2022-08-22T11:18:25.714Z,32.20
2022-08-22T11:19:24.994Z,32.41
2022-08-22T11:20:24.599Z,32.01
2022-08-22T11:21:24.605Z,31.83
2022-08-22T11:22:24.573Z,32.44
2022-08-22T11:23:25.226Z,34.91
2022-08-22T11:24:35.737Z,35.10
2022-08-22T11:25:35.719Z,36.68
2022-08-22T11:26:30.087Z,34.71
2022-08-22T11:27:31.703Z,34.81
2022-08-22T11:28:25.512Z,33.33
2022-08-22T11:29:24.516Z,33.22
2022-08-22T11:30:25.876Z,33.11
2022-08-22T11:31:24.502Z,32.31
2022-08-22T11:32:24.466Z,33.39
2022-08-22T11:33:32.482Z,31.72
2022-08-22T11:34:25.633Z,31.83
2022-08-22T11:35:24.456Z,34.20
2022-08-22T11:36:27.022Z,31.95
2022-08-22T11:37:42.245Z,33.23
2022-08-22T11:38:32.397Z,32.84
2022-08-22T11:39:25.424Z,33.23
2022-08-22T11:40:24.450Z,35.10
2022-08-22T11:41:24.394Z,31.85
2022-08-22T11:42:24.358Z,32.32
2022-08-22T11:43:25.367Z,32.92
2022-08-22T11:44:25.614Z,32.60
2022-08-22T11:45:24.350Z,32.20
2022-08-22T11:46:24.331Z,31.20
2022-08-22T11:47:27.319Z,30.31
2022-08-22T11:48:24.289Z,29.33
2022-08-22T11:49:25.688Z,31.10
2022-08-22T11:50:24.270Z,29.71
2022-08-22T11:51:24.956Z,31.95
2022-08-22T11:52:24.251Z,30.47
2022-08-22T11:53:24.250Z,29.19
2022-08-22T11:54:31.262Z,28.59
2022-08-22T11:55:27.550Z,28.61
2022-08-22T11:56:25.975Z,29.20
2022-08-22T11:57:24.274Z,29.77
2022-08-22T11:58:28.719Z,29.49
2022-08-22T11:59:24.197Z,29.89
2022-08-22T12:00:24.162Z,29.00
2022-08-22T12:01:24.182Z,29.79
2022-08-22T12:02:24.292Z,30.18
2022-08-22T12:03:24.132Z,32.23
2022-08-22T12:04:24.111Z,28.89
2022-08-22T12:05:24.708Z,31.05
2022-08-22T12:06:24.133Z,29.07
2022-08-22T12:07:24.843Z,28.88
2022-08-22T12:08:24.132Z,30.55
2022-08-22T12:09:24.079Z,31.63
2022-08-22T12:10:24.053Z,29.37
2022-08-22T12:11:24.125Z,28.49
2022-08-22T12:12:24.121Z,28.58
2022-08-22T12:13:34.976Z,28.27
2022-08-22T12:14:27.102Z,28.57
2022-08-22T12:15:24.841Z,28.17
2022-08-22T12:16:24.754Z,28.96
2022-08-22T12:17:50.937Z,30.25
2022-08-22T12:18:25.157Z,29.07
2022-08-22T12:19:23.993Z,29.66
2022-08-22T12:20:23.934Z,30.84
2022-08-22T12:21:23.952Z,28.86
2022-08-22T12:22:23.923Z,28.68
2022-08-22T12:23:30.044Z,28.49
2022-08-22T12:24:25.120Z,29.20
2022-08-22T12:25:23.902Z,29.71
2022-08-22T12:26:23.874Z,32.67
2022-08-22T12:27:28.702Z,32.56
2022-08-22T12:28:24.885Z,32.15
2022-08-22T12:29:33.516Z,28.79
2022-08-22T12:30:24.834Z,31.33
2022-08-22T12:31:23.844Z,30.94
2022-08-22T12:32:27.767Z,31.22
2022-08-22T12:33:23.818Z,28.55
2022-08-22T12:34:23.787Z,27.56
2022-08-22T12:35:29.709Z,26.68
2022-08-22T12:36:24.755Z,28.06
2022-08-22T12:37:24.533Z,30.42
2022-08-22T12:38:28.870Z,26.86
2022-08-22T12:39:24.787Z,26.17
2022-08-22T12:40:26.358Z,27.73
2022-08-22T12:41:28.105Z,28.31
2022-08-22T12:42:24.755Z,28.89
2022-08-22T12:43:23.736Z,25.67
2022-08-22T12:44:23.677Z,27.53
2022-08-22T12:45:24.147Z,26.67
2022-08-22T12:46:24.148Z,27.74
2022-08-22T12:47:24.147Z,29.02
2022-08-22T12:48:23.665Z,27.17
2022-08-22T12:49:23.764Z,27.17
2022-08-22T12:50:23.627Z,27.87